sensor_id;sensor_type;location;lat;lon;timestamp;temperature;humidity
16801;DHT22;8518;53.236;10.384;2023-07-31T00:00:08;14.30;99.90
16801;DHT22;8518;53.236;10.384;2023-07-31T00:02:37;14.30;99.90
16801;DHT22;8518;53.236;10.384;2023-07-31T00:05:03;14.30;99.90
16801;DHT22;8518;53.236;10.384;2023-07-31T00:07:29;14.40;99.90
16801;DHT22;8518;53.236;10.384;2023-07-31T00:09:54;14.90;99.90
16801;DHT22;8518;53.236;10.384;2023-07-31T00:12:22;14.80;99.90
16801;DHT22;8518;53.236;10.384;2023-07-31T00:14:49;14.40;99.90
16801;DHT22;8518;53.236;10.384;2023-07-31T00:20:40;14.40;99.90
16801;DHT22;8518;53.236;10.384;2023-07-31T00:23:06;14.40;99.90
16801;DHT22;8518;53.236;10.384;2023-07-31T00:28:54;14.40;99.90
16801;DHT22;8518;53.236;10.384;2023-07-31T00:31:19;14.30;99.90
16801;DHT22;8518;53.236;10.384;2023-07-31T00:33:45;14.70;99.90
16801;DHT22;8518;53.236;10.384;2023-07-31T00:39:34;14.50;99.90
16801;DHT22;8518;53.236;10.384;2023-07-31T00:45:23;14.60;99.90
16801;DHT22;8518;53.236;10.384;2023-07-31T00:47:52;14.60;99.90
16801;DHT22;8518;53.236;10.384;2023-07-31T00:50:17;14.50;99.90
16801;DHT22;8518;53.236;10.384;2023-07-31T00:52:43;14.70;99.90
16801;DHT22;8518;53.236;10.384;2023-07-31T00:55:09;14.70;99.90
16801;DHT22;8518;53.236;10.384;2023-07-31T00:57:38;14.70;99.90
16801;DHT22;8518;53.236;10.384;2023-07-31T01:00:05;13.90;99.90
16801;DHT22;8518;53.236;10.384;2023-07-31T01:02:36;14.70;99.90
16801;DHT22;8518;53.236;10.384;2023-07-31T01:05:03;14.90;99.90
16801;DHT22;8518;53.236;10.384;2023-07-31T01:10:27;14.80;99.90
16801;DHT22;8518;53.236;10.384;2023-07-31T01:12:56;14.70;99.90
16801;DHT22;8518;53.236;10.384;2023-07-31T01:18:45;14.90;99.90
16801;DHT22;8518;53.236;10.384;2023-07-31T01:21:57;14.90;99.90
16801;DHT22;8518;53.236;10.384;2023-07-31T01:30:45;15.00;99.90
16801;DHT22;8518;53.236;10.384;2023-07-31T01:33:16;15.00;99.90
16801;DHT22;8518;53.236;10.384;2023-07-31T01:39:04;14.90;99.90
16801;DHT22;8518;53.236;10.384;2023-07-31T01:41:30;15.30;99.90
16801;DHT22;8518;53.236;10.384;2023-07-31T01:43:55;14.90;99.90
16801;DHT22;8518;53.236;10.384;2023-07-31T01:49:43;14.90;99.90
16801;DHT22;8518;53.236;10.384;2023-07-31T01:55:31;14.90;99.90
16801;DHT22;8518;53.236;10.384;2023-07-31T01:57:56;14.90;99.90
16801;DHT22;8518;53.236;10.384;2023-07-31T02:00:22;14.90;99.90
16801;DHT22;8518;53.236;10.384;2023-07-31T02:02:48;14.90;99.90
16801;DHT22;8518;53.236;10.384;2023-07-31T02:05:13;14.80;99.90
16801;DHT22;8518;53.236;10.384;2023-07-31T02:07:39;14.80;99.90
16801;DHT22;8518;53.236;10.384;2023-07-31T02:10:05;14.80;99.90
16801;DHT22;8518;53.236;10.384;2023-07-31T02:12:31;14.80;99.90
16801;DHT22;8518;53.236;10.384;2023-07-31T02:14:57;15.00;99.90
16801;DHT22;8518;53.236;10.384;2023-07-31T02:17:23;15.30;99.90
16801;DHT22;8518;53.236;10.384;2023-07-31T02:19:48;15.40;99.90
16801;DHT22;8518;53.236;10.384;2023-07-31T02:22:17;14.80;99.90
16801;DHT22;8518;53.236;10.384;2023-07-31T02:24:43;14.70;99.90
16801;DHT22;8518;53.236;10.384;2023-07-31T02:30:31;14.70;99.90
16801;DHT22;8518;53.236;10.384;2023-07-31T02:32:56;14.70;99.90
16801;DHT22;8518;53.236;10.384;2023-07-31T02:38:44;14.70;99.90
16801;DHT22;8518;53.236;10.384;2023-07-31T02:41:10;14.70;99.90
16801;DHT22;8518;53.236;10.384;2023-07-31T02:43:43;15.50;99.90
16801;DHT22;8518;53.236;10.384;2023-07-31T02:49:36;14.70;99.90
16801;DHT22;8518;53.236;10.384;2023-07-31T02:52:02;14.70;99.90
16801;DHT22;8518;53.236;10.384;2023-07-31T02:54:28;14.70;99.90
16801;DHT22;8518;53.236;10.384;2023-07-31T03:00:16;14.70;99.90
16801;DHT22;8518;53.236;10.384;2023-07-31T03:02:41;14.70;99.90
16801;DHT22;8518;53.236;10.384;2023-07-31T03:05:07;14.70;99.90
16801;DHT22;8518;53.236;10.384;2023-07-31T03:07:33;14.80;99.90
16801;DHT22;8518;53.236;10.384;2023-07-31T03:09:59;14.70;99.90
16801;DHT22;8518;53.236;10.384;2023-07-31T03:12:24;14.80;99.90
16801;DHT22;8518;53.236;10.384;2023-07-31T03:14:50;15.70;99.90
16801;DHT22;8518;53.236;10.384;2023-07-31T03:20:42;14.90;99.90
16801;DHT22;8518;53.236;10.384;2023-07-31T03:26:31;14.90;99.90
16801;DHT22;8518;53.236;10.384;2023-07-31T03:28:57;14.90;99.90
16801;DHT22;8518;53.236;10.384;2023-07-31T03:31:22;14.90;99.90
16801;DHT22;8518;53.236;10.384;2023-07-31T03:33:48;15.30;99.90
16801;DHT22;8518;53.236;10.384;2023-07-31T03:39:35;14.90;99.90
16801;DHT22;8518;53.236;10.384;2023-07-31T03:42:01;15.00;99.90
16801;DHT22;8518;53.236;10.384;2023-07-31T03:44:27;15.00;99.90
16801;DHT22;8518;53.236;10.384;2023-07-31T03:50:15;15.00;99.90
16801;DHT22;8518;53.236;10.384;2023-07-31T03:52:41;15.00;99.90
16801;DHT22;8518;53.236;10.384;2023-07-31T03:55:08;15.10;99.90
16801;DHT22;8518;53.236;10.384;2023-07-31T03:57:34;15.20;99.90
16801;DHT22;8518;53.236;10.384;2023-07-31T04:00:00;15.80;99.90
16801;DHT22;8518;53.236;10.384;2023-07-31T04:02:25;15.10;99.90
16801;DHT22;8518;53.236;10.384;2023-07-31T04:04:51;15.10;99.90
16801;DHT22;8518;53.236;10.384;2023-07-31T04:10:39;15.00;99.90
16801;DHT22;8518;53.236;10.384;2023-07-31T04:13:06;15.00;99.90
16801;DHT22;8518;53.236;10.384;2023-07-31T04:18:56;14.90;99.90
16801;DHT22;8518;53.236;10.384;2023-07-31T04:21:22;14.90;99.90
16801;DHT22;8518;53.236;10.384;2023-07-31T04:23:47;14.80;99.90
16801;DHT22;8518;53.236;10.384;2023-07-31T04:29:35;14.80;99.90
16801;DHT22;8518;53.236;10.384;2023-07-31T04:32:01;15.00;99.90
16801;DHT22;8518;53.236;10.384;2023-07-31T04:34:26;14.80;99.90
16801;DHT22;8518;53.236;10.384;2023-07-31T04:40:15;14.80;99.90
16801;DHT22;8518;53.236;10.384;2023-07-31T04:42:42;14.80;99.90
16801;DHT22;8518;53.236;10.384;2023-07-31T04:45:09;14.80;99.90
16801;DHT22;8518;53.236;10.384;2023-07-31T04:47:35;14.80;99.90
16801;DHT22;8518;53.236;10.384;2023-07-31T04:50:00;14.80;99.90
16801;DHT22;8518;53.236;10.384;2023-07-31T04:52:26;14.90;99.90
16801;DHT22;8518;53.236;10.384;2023-07-31T04:54:53;14.90;99.90
16801;DHT22;8518;53.236;10.384;2023-07-31T05:00:40;14.90;99.90
16801;DHT22;8518;53.236;10.384;2023-07-31T05:03:06;15.00;99.90
16801;DHT22;8518;53.236;10.384;2023-07-31T05:05:32;15.40;99.90
16801;DHT22;8518;53.236;10.384;2023-07-31T05:07:58;15.30;99.90
16801;DHT22;8518;53.236;10.384;2023-07-31T05:10:24;15.00;99.90
16801;DHT22;8518;53.236;10.384;2023-07-31T05:12:49;15.00;99.90
16801;DHT22;8518;53.236;10.384;2023-07-31T05:15:15;15.00;99.90
16801;DHT22;8518;53.236;10.384;2023-07-31T05:17:40;15.10;99.90
16801;DHT22;8518;53.236;10.384;2023-07-31T05:20:07;15.10;99.90
16801;DHT22;8518;53.236;10.384;2023-07-31T05:22:32;15.10;99.90
16801;DHT22;8518;53.236;10.384;2023-07-31T05:24:58;15.30;99.90
16801;DHT22;8518;53.236;10.384;2023-07-31T05:27:24;15.20;99.90
16801;DHT22;8518;53.236;10.384;2023-07-31T05:29:49;15.30;99.90
16801;DHT22;8518;53.236;10.384;2023-07-31T05:32:15;15.40;99.90
16801;DHT22;8518;53.236;10.384;2023-07-31T05:34:40;15.40;99.90
16801;DHT22;8518;53.236;10.384;2023-07-31T05:40:28;15.60;99.90
16801;DHT22;8518;53.236;10.384;2023-07-31T05:46:19;15.60;99.90
16801;DHT22;8518;53.236;10.384;2023-07-31T05:48:44;15.70;99.90
16801;DHT22;8518;53.236;10.384;2023-07-31T05:51:10;15.70;99.90
16801;DHT22;8518;53.236;10.384;2023-07-31T05:53:35;15.80;99.90
16801;DHT22;8518;53.236;10.384;2023-07-31T05:59:27;15.90;99.90
16801;DHT22;8518;53.236;10.384;2023-07-31T06:01:53;15.90;99.90
16801;DHT22;8518;53.236;10.384;2023-07-31T06:04:22;15.90;99.90
16801;DHT22;8518;53.236;10.384;2023-07-31T06:10:17;16.00;99.90
16801;DHT22;8518;53.236;10.384;2023-07-31T06:12:44;16.20;99.90
16801;DHT22;8518;53.236;10.384;2023-07-31T06:15:09;16.20;99.90
16801;DHT22;8518;53.236;10.384;2023-07-31T06:17:36;16.20;99.90
16801;DHT22;8518;53.236;10.384;2023-07-31T06:20:02;16.40;99.90
16801;DHT22;8518;53.236;10.384;2023-07-31T06:22:33;16.20;99.90
16801;DHT22;8518;53.236;10.384;2023-07-31T06:24:59;16.20;99.90
16801;DHT22;8518;53.236;10.384;2023-07-31T06:27:25;16.20;99.90
16801;DHT22;8518;53.236;10.384;2023-07-31T06:29:50;16.40;99.90
16801;DHT22;8518;53.236;10.384;2023-07-31T06:32:16;16.20;99.90
16801;DHT22;8518;53.236;10.384;2023-07-31T06:34:42;16.20;99.90
16801;DHT22;8518;53.236;10.384;2023-07-31T06:40:30;16.20;99.90
16801;DHT22;8518;53.236;10.384;2023-07-31T06:46:17;16.20;99.90
16801;DHT22;8518;53.236;10.384;2023-07-31T06:48:43;16.30;99.90
16801;DHT22;8518;53.236;10.384;2023-07-31T06:51:09;16.30;99.90
16801;DHT22;8518;53.236;10.384;2023-07-31T06:53:35;16.40;99.90
16801;DHT22;8518;53.236;10.384;2023-07-31T06:59:22;16.60;99.90
16801;DHT22;8518;53.236;10.384;2023-07-31T07:05:10;17.00;99.90
16801;DHT22;8518;53.236;10.384;2023-07-31T07:07:36;17.20;99.90
16801;DHT22;8518;53.236;10.384;2023-07-31T07:10:02;17.40;99.90
16801;DHT22;8518;53.236;10.384;2023-07-31T07:12:31;17.20;99.90
16801;DHT22;8518;53.236;10.384;2023-07-31T07:14:57;17.20;99.90
16801;DHT22;8518;53.236;10.384;2023-07-31T07:17:28;17.30;99.90
16801;DHT22;8518;53.236;10.384;2023-07-31T07:19:53;17.30;99.90
16801;DHT22;8518;53.236;10.384;2023-07-31T07:22:20;17.40;99.90
16801;DHT22;8518;53.236;10.384;2023-07-31T07:24:46;17.50;99.90
16801;DHT22;8518;53.236;10.384;2023-07-31T07:30:33;17.00;99.90
16801;DHT22;8518;53.236;10.384;2023-07-31T07:32:59;17.00;99.90
16801;DHT22;8518;53.236;10.384;2023-07-31T07:38:47;16.80;99.90
16801;DHT22;8518;53.236;10.384;2023-07-31T07:41:12;16.80;99.90
16801;DHT22;8518;53.236;10.384;2023-07-31T07:43:38;16.80;99.90
16801;DHT22;8518;53.236;10.384;2023-07-31T07:49:26;16.70;99.90
16801;DHT22;8518;53.236;10.384;2023-07-31T07:51:51;16.80;99.90
16801;DHT22;8518;53.236;10.384;2023-07-31T07:54:17;16.80;99.90
16801;DHT22;8518;53.236;10.384;2023-07-31T08:00:05;16.90;99.90
16801;DHT22;8518;53.236;10.384;2023-07-31T08:09:18;16.50;99.90
16801;DHT22;8518;53.236;10.384;2023-07-31T08:11:44;16.50;99.90
16801;DHT22;8518;53.236;10.384;2023-07-31T08:14:09;16.50;99.90
16801;DHT22;8518;53.236;10.384;2023-07-31T08:19:57;16.60;99.90
16801;DHT22;8518;53.236;10.384;2023-07-31T08:22:24;16.90;99.90
16801;DHT22;8518;53.236;10.384;2023-07-31T08:24:50;16.60;99.90
16801;DHT22;8518;53.236;10.384;2023-07-31T08:30:38;16.70;99.90
16801;DHT22;8518;53.236;10.384;2023-07-31T08:33:03;16.80;99.90
16801;DHT22;8518;53.236;10.384;2023-07-31T08:38:54;16.70;99.90
16801;DHT22;8518;53.236;10.384;2023-07-31T08:41:20;16.80;99.90
16801;DHT22;8518;53.236;10.384;2023-07-31T08:43:49;16.80;99.90
16801;DHT22;8518;53.236;10.384;2023-07-31T08:49:38;16.80;99.90
16801;DHT22;8518;53.236;10.384;2023-07-31T08:52:04;16.70;99.90
16801;DHT22;8518;53.236;10.384;2023-07-31T08:54:30;16.70;99.90
16801;DHT22;8518;53.236;10.384;2023-07-31T09:00:21;16.60;99.90
16801;DHT22;8518;53.236;10.384;2023-07-31T09:05:23;16.60;99.90
16801;DHT22;8518;53.236;10.384;2023-07-31T09:07:51;16.50;99.90
16801;DHT22;8518;53.236;10.384;2023-07-31T09:10:17;16.50;99.90
16801;DHT22;8518;53.236;10.384;2023-07-31T09:12:43;16.60;99.90
16801;DHT22;8518;53.236;10.384;2023-07-31T09:15:09;16.70;99.90
16801;DHT22;8518;53.236;10.384;2023-07-31T09:17:36;16.70;99.90
16801;DHT22;8518;53.236;10.384;2023-07-31T09:22:41;16.80;99.90
16801;DHT22;8518;53.236;10.384;2023-07-31T09:25:18;16.80;99.90
16801;DHT22;8518;53.236;10.384;2023-07-31T09:27:57;16.80;99.90
16801;DHT22;8518;53.236;10.384;2023-07-31T09:30:23;16.70;99.90
16801;DHT22;8518;53.236;10.384;2023-07-31T09:32:50;16.80;99.90
16801;DHT22;8518;53.236;10.384;2023-07-31T09:38:38;16.80;99.90
16801;DHT22;8518;53.236;10.384;2023-07-31T09:41:05;17.00;99.90
16801;DHT22;8518;53.236;10.384;2023-07-31T09:43:30;16.90;99.90
16801;DHT22;8518;53.236;10.384;2023-07-31T09:49:18;17.20;99.90
16801;DHT22;8518;53.236;10.384;2023-07-31T09:51:44;17.20;99.90
16801;DHT22;8518;53.236;10.384;2023-07-31T09:54:15;17.30;99.90
16801;DHT22;8518;53.236;10.384;2023-07-31T10:00:03;17.60;99.90
16801;DHT22;8518;53.236;10.384;2023-07-31T10:09:21;17.80;99.90
16801;DHT22;8518;53.236;10.384;2023-07-31T10:11:55;17.80;99.90
16801;DHT22;8518;53.236;10.384;2023-07-31T10:14:21;18.10;99.90
16801;DHT22;8518;53.236;10.384;2023-07-31T10:20:11;18.60;99.90
16801;DHT22;8518;53.236;10.384;2023-07-31T10:22:38;18.50;99.90
16801;DHT22;8518;53.236;10.384;2023-07-31T10:25:05;18.50;99.90
16801;DHT22;8518;53.236;10.384;2023-07-31T10:27:38;18.20;99.90
16801;DHT22;8518;53.236;10.384;2023-07-31T10:30:05;18.30;99.90
16801;DHT22;8518;53.236;10.384;2023-07-31T10:32:33;18.50;99.90
16801;DHT22;8518;53.236;10.384;2023-07-31T10:35:01;18.70;99.90
16801;DHT22;8518;53.236;10.384;2023-07-31T10:37:36;19.10;99.90
16801;DHT22;8518;53.236;10.384;2023-07-31T10:40:46;19.20;99.90
16801;DHT22;8518;53.236;10.384;2023-07-31T10:42:56;19.10;99.90
16801;DHT22;8518;53.236;10.384;2023-07-31T10:48:57;18.60;99.90
16801;DHT22;8518;53.236;10.384;2023-07-31T10:51:32;18.40;99.90
16801;DHT22;8518;53.236;10.384;2023-07-31T10:54:15;18.30;99.90
16801;DHT22;8518;53.236;10.384;2023-07-31T11:00:20;18.00;99.90
16801;DHT22;8518;53.236;10.384;2023-07-31T11:06:08;18.00;99.90
16801;DHT22;8518;53.236;10.384;2023-07-31T11:08:45;18.10;99.90
16801;DHT22;8518;53.236;10.384;2023-07-31T11:11:13;18.20;99.90
16801;DHT22;8518;53.236;10.384;2023-07-31T11:13:40;18.30;99.90
16801;DHT22;8518;53.236;10.384;2023-07-31T11:19:28;18.20;99.90
16801;DHT22;8518;53.236;10.384;2023-07-31T11:21:53;18.20;99.90
16801;DHT22;8518;53.236;10.384;2023-07-31T11:24:19;18.20;99.90
16801;DHT22;8518;53.236;10.384;2023-07-31T11:30:07;18.30;99.90
16801;DHT22;8518;53.236;10.384;2023-07-31T11:32:36;18.40;99.90
16801;DHT22;8518;53.236;10.384;2023-07-31T11:35:02;18.40;99.90
16801;DHT22;8518;53.236;10.384;2023-07-31T11:37:40;18.50;99.90
16801;DHT22;8518;53.236;10.384;2023-07-31T11:40:06;18.60;99.90
16801;DHT22;8518;53.236;10.384;2023-07-31T11:42:32;18.60;99.90
16801;DHT22;8518;53.236;10.384;2023-07-31T11:44:58;18.80;99.90
16801;DHT22;8518;53.236;10.384;2023-07-31T11:47:26;18.90;99.90
16801;DHT22;8518;53.236;10.384;2023-07-31T11:49:51;19.00;99.90
16801;DHT22;8518;53.236;10.384;2023-07-31T11:52:20;19.00;99.90
16801;DHT22;8518;53.236;10.384;2023-07-31T11:54:49;19.10;99.90
16801;DHT22;8518;53.236;10.384;2023-07-31T12:00:36;19.10;99.90
16801;DHT22;8518;53.236;10.384;2023-07-31T12:03:02;18.90;99.90
16801;DHT22;8518;53.236;10.384;2023-07-31T12:05:30;18.80;99.90
16801;DHT22;8518;53.236;10.384;2023-07-31T12:07:55;18.60;99.90
16801;DHT22;8518;53.236;10.384;2023-07-31T12:10:25;18.50;99.90
16801;DHT22;8518;53.236;10.384;2023-07-31T12:13:01;18.40;99.90
16801;DHT22;8518;53.236;10.384;2023-07-31T12:18:49;18.30;99.90
16801;DHT22;8518;53.236;10.384;2023-07-31T12:24:44;18.30;99.90
16801;DHT22;8518;53.236;10.384;2023-07-31T12:30:33;18.30;99.90
16801;DHT22;8518;53.236;10.384;2023-07-31T12:33:32;18.40;99.90
16801;DHT22;8518;53.236;10.384;2023-07-31T12:39:20;18.60;99.90
16801;DHT22;8518;53.236;10.384;2023-07-31T12:41:49;18.50;99.90
16801;DHT22;8518;53.236;10.384;2023-07-31T12:44:14;18.30;99.90
16801;DHT22;8518;53.236;10.384;2023-07-31T12:50:09;18.30;99.90
16801;DHT22;8518;53.236;10.384;2023-07-31T12:52:34;18.30;99.90
16801;DHT22;8518;53.236;10.384;2023-07-31T12:55:03;18.40;99.90
16801;DHT22;8518;53.236;10.384;2023-07-31T12:57:30;18.30;99.90
16801;DHT22;8518;53.236;10.384;2023-07-31T12:59:55;18.30;99.90
16801;DHT22;8518;53.236;10.384;2023-07-31T13:02:21;18.30;99.90
16801;DHT22;8518;53.236;10.384;2023-07-31T13:04:47;18.40;99.90
16801;DHT22;8518;53.236;10.384;2023-07-31T13:10:35;18.20;99.90
16801;DHT22;8518;53.236;10.384;2023-07-31T13:13:03;18.10;99.90
16801;DHT22;8518;53.236;10.384;2023-07-31T13:18:53;17.90;99.90
16801;DHT22;8518;53.236;10.384;2023-07-31T13:21:19;18.10;99.90
16801;DHT22;8518;53.236;10.384;2023-07-31T13:23:47;17.90;99.90
16801;DHT22;8518;53.236;10.384;2023-07-31T13:29:34;18.10;99.90
16801;DHT22;8518;53.236;10.384;2023-07-31T13:32:00;18.20;99.90
16801;DHT22;8518;53.236;10.384;2023-07-31T13:34:26;18.20;99.90
16801;DHT22;8518;53.236;10.384;2023-07-31T13:40:14;18.10;99.90
16801;DHT22;8518;53.236;10.384;2023-07-31T13:46:02;18.00;99.90
16801;DHT22;8518;53.236;10.384;2023-07-31T13:48:34;18.10;99.90
16801;DHT22;8518;53.236;10.384;2023-07-31T13:50:59;18.10;99.90
16801;DHT22;8518;53.236;10.384;2023-07-31T13:53:27;18.20;99.90
16801;DHT22;8518;53.236;10.384;2023-07-31T13:59:15;18.30;99.90
16801;DHT22;8518;53.236;10.384;2023-07-31T14:01:42;18.00;99.90
16801;DHT22;8518;53.236;10.384;2023-07-31T14:04:08;17.90;99.90
16801;DHT22;8518;53.236;10.384;2023-07-31T14:09:56;18.00;99.90
16801;DHT22;8518;53.236;10.384;2023-07-31T14:15:43;18.00;99.90
16801;DHT22;8518;53.236;10.384;2023-07-31T14:18:09;17.90;99.90
16801;DHT22;8518;53.236;10.384;2023-07-31T14:20:36;17.80;99.90
16801;DHT22;8518;53.236;10.384;2023-07-31T14:23:08;17.80;99.90
16801;DHT22;8518;53.236;10.384;2023-07-31T14:28:55;17.70;99.90
16801;DHT22;8518;53.236;10.384;2023-07-31T14:31:21;17.80;99.90
16801;DHT22;8518;53.236;10.384;2023-07-31T14:33:47;17.80;99.90
16801;DHT22;8518;53.236;10.384;2023-07-31T14:39:35;18.00;99.90
16801;DHT22;8518;53.236;10.384;2023-07-31T14:42:00;18.10;99.90
16801;DHT22;8518;53.236;10.384;2023-07-31T14:44:26;18.20;99.90
16801;DHT22;8518;53.236;10.384;2023-07-31T14:50:14;18.30;99.90
16801;DHT22;8518;53.236;10.384;2023-07-31T14:56:03;18.20;99.90
16801;DHT22;8518;53.236;10.384;2023-07-31T14:58:28;18.30;99.90
16801;DHT22;8518;53.236;10.384;2023-07-31T15:00:55;18.30;99.90
16801;DHT22;8518;53.236;10.384;2023-07-31T15:03:21;18.60;99.90
16801;DHT22;8518;53.236;10.384;2023-07-31T15:05:47;18.20;99.90
16801;DHT22;8518;53.236;10.384;2023-07-31T15:08:12;18.10;99.90
16801;DHT22;8518;53.236;10.384;2023-07-31T15:10:38;18.10;99.90
16801;DHT22;8518;53.236;10.384;2023-07-31T15:13:03;18.10;99.90
16801;DHT22;8518;53.236;10.384;2023-07-31T15:18:51;18.20;99.90
16801;DHT22;8518;53.236;10.384;2023-07-31T15:21:17;18.10;99.90
16801;DHT22;8518;53.236;10.384;2023-07-31T15:23:42;18.10;99.90
16801;DHT22;8518;53.236;10.384;2023-07-31T15:29:31;18.10;99.90
16801;DHT22;8518;53.236;10.384;2023-07-31T15:35:21;18.10;99.90
16801;DHT22;8518;53.236;10.384;2023-07-31T15:37:47;18.10;99.90
16801;DHT22;8518;53.236;10.384;2023-07-31T15:40:13;18.00;99.90
16801;DHT22;8518;53.236;10.384;2023-07-31T15:42:38;18.10;99.90
16801;DHT22;8518;53.236;10.384;2023-07-31T15:45:06;18.00;99.90
16801;DHT22;8518;53.236;10.384;2023-07-31T15:47:32;18.20;99.90
16801;DHT22;8518;53.236;10.384;2023-07-31T15:49:58;18.30;99.90
16801;DHT22;8518;53.236;10.384;2023-07-31T15:52:24;18.30;99.90
16801;DHT22;8518;53.236;10.384;2023-07-31T15:54:49;18.60;99.90
16801;DHT22;8518;53.236;10.384;2023-07-31T16:00:37;18.50;99.90
16801;DHT22;8518;53.236;10.384;2023-07-31T16:03:03;18.60;99.90
16801;DHT22;8518;53.236;10.384;2023-07-31T16:05:28;18.60;99.90
16801;DHT22;8518;53.236;10.384;2023-07-31T16:07:54;18.70;99.90
16801;DHT22;8518;53.236;10.384;2023-07-31T16:10:20;18.60;99.90
16801;DHT22;8518;53.236;10.384;2023-07-31T16:12:47;18.50;99.90
16801;DHT22;8518;53.236;10.384;2023-07-31T16:15:12;18.60;99.90
16801;DHT22;8518;53.236;10.384;2023-07-31T16:17:38;18.80;99.90
16801;DHT22;8518;53.236;10.384;2023-07-31T16:20:04;18.60;99.90
16801;DHT22;8518;53.236;10.384;2023-07-31T16:22:30;18.60;99.90
16801;DHT22;8518;53.236;10.384;2023-07-31T16:24:55;18.70;99.90
16801;DHT22;8518;53.236;10.384;2023-07-31T16:30:44;18.60;99.90
16801;DHT22;8518;53.236;10.384;2023-07-31T16:33:11;18.70;99.90
16801;DHT22;8518;53.236;10.384;2023-07-31T16:38:59;18.60;99.90
16801;DHT22;8518;53.236;10.384;2023-07-31T16:44:47;18.50;99.90
16801;DHT22;8518;53.236;10.384;2023-07-31T16:50:36;18.40;99.90
16801;DHT22;8518;53.236;10.384;2023-07-31T16:53:01;18.20;99.90
16801;DHT22;8518;53.236;10.384;2023-07-31T16:58:49;18.20;99.90
16801;DHT22;8518;53.236;10.384;2023-07-31T17:01:14;18.20;99.90
16801;DHT22;8518;53.236;10.384;2023-07-31T17:03:40;18.20;99.90
16801;DHT22;8518;53.236;10.384;2023-07-31T17:06:06;18.30;99.90
16801;DHT22;8518;53.236;10.384;2023-07-31T17:08:31;18.30;99.90
16801;DHT22;8518;53.236;10.384;2023-07-31T17:10:57;18.50;99.90
16801;DHT22;8518;53.236;10.384;2023-07-31T17:13:23;18.40;99.90
16801;DHT22;8518;53.236;10.384;2023-07-31T17:19:10;18.30;99.90
16801;DHT22;8518;53.236;10.384;2023-07-31T17:21:36;18.20;99.90
16801;DHT22;8518;53.236;10.384;2023-07-31T17:24:01;18.20;99.90
16801;DHT22;8518;53.236;10.384;2023-07-31T17:29:50;18.00;99.90
16801;DHT22;8518;53.236;10.384;2023-07-31T17:32:16;17.80;99.90
16801;DHT22;8518;53.236;10.384;2023-07-31T17:34:41;17.80;99.90
16801;DHT22;8518;53.236;10.384;2023-07-31T17:40:30;17.70;99.90
16801;DHT22;8518;53.236;10.384;2023-07-31T17:42:56;17.60;99.90
16801;DHT22;8518;53.236;10.384;2023-07-31T17:45:21;17.60;99.90
16801;DHT22;8518;53.236;10.384;2023-07-31T17:47:47;17.60;99.90
16801;DHT22;8518;53.236;10.384;2023-07-31T17:50:12;17.50;99.90
16801;DHT22;8518;53.236;10.384;2023-07-31T17:52:38;17.60;99.90
16801;DHT22;8518;53.236;10.384;2023-07-31T17:55:04;17.60;99.90
16801;DHT22;8518;53.236;10.384;2023-07-31T17:57:30;17.70;99.90
16801;DHT22;8518;53.236;10.384;2023-07-31T17:59:55;17.60;99.90
16801;DHT22;8518;53.236;10.384;2023-07-31T18:02:21;17.70;99.90
16801;DHT22;8518;53.236;10.384;2023-07-31T18:04:46;17.80;99.90
16801;DHT22;8518;53.236;10.384;2023-07-31T18:10:34;17.80;99.90
16801;DHT22;8518;53.236;10.384;2023-07-31T18:16:30;17.80;99.90
16801;DHT22;8518;53.236;10.384;2023-07-31T18:18:56;17.90;99.90
16801;DHT22;8518;53.236;10.384;2023-07-31T18:21:21;17.80;99.90
16801;DHT22;8518;53.236;10.384;2023-07-31T18:23:48;17.90;99.90
16801;DHT22;8518;53.236;10.384;2023-07-31T18:29:37;17.90;99.90
16801;DHT22;8518;53.236;10.384;2023-07-31T18:32:03;17.90;99.90
16801;DHT22;8518;53.236;10.384;2023-07-31T18:34:29;17.90;99.90
16801;DHT22;8518;53.236;10.384;2023-07-31T18:40:17;17.90;99.90
16801;DHT22;8518;53.236;10.384;2023-07-31T18:42:42;17.90;99.90
16801;DHT22;8518;53.236;10.384;2023-07-31T18:45:10;17.90;99.90
16801;DHT22;8518;53.236;10.384;2023-07-31T18:47:36;17.90;99.90
16801;DHT22;8518;53.236;10.384;2023-07-31T18:50:02;17.90;99.90
16801;DHT22;8518;53.236;10.384;2023-07-31T18:52:29;17.90;99.90
16801;DHT22;8518;53.236;10.384;2023-07-31T18:54:54;17.90;99.90
16801;DHT22;8518;53.236;10.384;2023-07-31T19:00:43;17.80;99.90
16801;DHT22;8518;53.236;10.384;2023-07-31T19:03:08;17.80;99.90
16801;DHT22;8518;53.236;10.384;2023-07-31T19:05:36;17.80;99.90
16801;DHT22;8518;53.236;10.384;2023-07-31T19:08:01;17.80;99.90
16801;DHT22;8518;53.236;10.384;2023-07-31T19:10:31;17.80;99.90
16801;DHT22;8518;53.236;10.384;2023-07-31T19:12:56;17.80;99.90
16801;DHT22;8518;53.236;10.384;2023-07-31T19:18:44;17.80;99.90
16801;DHT22;8518;53.236;10.384;2023-07-31T19:21:10;17.70;99.90
16801;DHT22;8518;53.236;10.384;2023-07-31T19:23:36;17.80;99.90
16801;DHT22;8518;53.236;10.384;2023-07-31T19:29:24;17.80;99.90
16801;DHT22;8518;53.236;10.384;2023-07-31T19:31:50;17.70;99.90
16801;DHT22;8518;53.236;10.384;2023-07-31T19:34:15;17.60;99.90
16801;DHT22;8518;53.236;10.384;2023-07-31T19:40:07;17.50;99.90
16801;DHT22;8518;53.236;10.384;2023-07-31T19:42:32;17.40;99.90
16801;DHT22;8518;53.236;10.384;2023-07-31T19:45:04;17.40;99.90
16801;DHT22;8518;53.236;10.384;2023-07-31T19:47:31;17.40;99.90
16801;DHT22;8518;53.236;10.384;2023-07-31T19:49:57;17.30;99.90
16801;DHT22;8518;53.236;10.384;2023-07-31T19:52:23;17.20;99.90
16801;DHT22;8518;53.236;10.384;2023-07-31T19:54:50;17.30;99.90
16801;DHT22;8518;53.236;10.384;2023-07-31T20:00:38;17.10;99.90
16801;DHT22;8518;53.236;10.384;2023-07-31T20:03:06;17.10;99.90
16801;DHT22;8518;53.236;10.384;2023-07-31T20:05:34;17.10;99.90
16801;DHT22;8518;53.236;10.384;2023-07-31T20:08:02;17.00;99.90
16801;DHT22;8518;53.236;10.384;2023-07-31T20:10:28;16.90;99.90
16801;DHT22;8518;53.236;10.384;2023-07-31T20:12:56;16.80;99.90
16801;DHT22;8518;53.236;10.384;2023-07-31T20:18:44;16.60;99.90
16801;DHT22;8518;53.236;10.384;2023-07-31T20:24:32;16.50;99.90
16801;DHT22;8518;53.236;10.384;2023-07-31T20:30:22;16.50;99.90
16801;DHT22;8518;53.236;10.384;2023-07-31T20:32:48;16.40;99.90
16801;DHT22;8518;53.236;10.384;2023-07-31T20:35:13;16.30;99.90
16801;DHT22;8518;53.236;10.384;2023-07-31T20:37:42;16.40;99.90
16801;DHT22;8518;53.236;10.384;2023-07-31T20:40:08;16.40;99.90
16801;DHT22;8518;53.236;10.384;2023-07-31T20:42:34;16.40;99.90
16801;DHT22;8518;53.236;10.384;2023-07-31T20:45:00;16.50;99.90
16801;DHT22;8518;53.236;10.384;2023-07-31T20:47:25;16.40;99.90
16801;DHT22;8518;53.236;10.384;2023-07-31T20:49:51;16.70;99.90
16801;DHT22;8518;53.236;10.384;2023-07-31T20:52:18;16.40;99.90
16801;DHT22;8518;53.236;10.384;2023-07-31T20:54:44;16.40;99.90